Time;durP1;ratioP1;P1;durP2;ratioP2;P2;SDS_P1;SDS_P2;PMS_P1;PMS_P2;Temp;Humidity;BMP_temperature;BMP_pressure;BME280_temperature;BME280_humidity;BME280_pressure;Samples;Min_cycle;Max_cycle;Signal;HPM_P1;HPM_P2
2023/04/05 00:00:06;;;;;;;;;;;;;;;15.12;59.88;102222.06;1044197;28;631;-67
2023/04/05 00:00:57;;;;;;;;;;;;;;;15.16;60.13;102219.13;1044677;28;1139;-67
2023/04/05 00:01:49;;;;;;;;;;;;;;;15.18;59.70;102219.03;1041858;28;701;-67
2023/04/05 00:02:39;;;;;;;;;;;;;;;15.21;59.58;102217.00;1043625;28;665;-67
2023/04/05 00:03:30;;;;;;;;;;;;;;;15.24;59.82;102219.47;1041228;28;642;-67
2023/04/05 00:04:20;;;;;;;;;;;;;;;15.25;59.85;102215.84;1043521;28;1334;-67
2023/04/05 00:05:11;;;;;;;;;;;;;;;15.27;59.88;102213.06;1041477;28;1386;-67
2023/04/05 00:06:04;;;;;;;;;;;;;;;15.25;59.87;102214.97;1040249;28;1158;-66
2023/04/05 00:06:56;;;;;;;;;;;;;;;15.14;60.12;102210.28;1044177;28;1193;-67
2023/04/05 00:07:46;;;;;;;;;;;;;;;15.15;60.22;102205.78;1044820;28;709;-66
2023/04/05 00:08:37;;;;;;;;;;;;;;;15.11;60.27;102206.91;1041216;28;622;-66
2023/04/05 00:09:27;;;;;;;;;;;;;;;15.07;60.27;102208.06;1042400;28;706;-66
2023/04/05 00:10:18;;;;;;;;;;;;;;;15.07;60.55;102200.00;1041291;28;1217;-66
2023/04/05 00:11:08;;;;;;;;;;;;;;;15.06;60.13;102204.50;1043083;28;1905;-66
2023/04/05 00:11:59;;;;;;;;;;;;;;;15.08;60.27;102205.28;1040732;28;693;-67
2023/04/05 00:12:50;;;;;;;;;;;;;;;15.09;60.51;102208.84;1040870;28;1010;-67
2023/04/05 00:13:40;;;;;;;;;;;;;;;15.14;60.30;102210.28;1043565;28;651;-67
2023/04/05 00:14:30;;;;;;;;;;;;;;;15.15;59.70;102203.09;1043850;28;1493;-67
2023/04/05 00:15:21;;;;;;;;;;;;;;;15.20;59.91;102214.41;1045486;28;610;-67
2023/04/05 00:16:11;;;;;;;;;;;;;;;15.19;59.81;102212.69;1041695;28;1102;-67
2023/04/05 00:17:02;;;;;;;;;;;;;;;15.18;59.46;102202.91;1040761;28;724;-67
2023/04/05 00:17:55;;;;;;;;;;;;;;;15.16;59.61;102204.81;1045232;28;999;-67
2023/04/05 00:18:50;;;;;;;;;;;;;;;15.12;59.43;102203.28;1045538;28;728;-68
2023/04/05 00:19:41;;;;;;;;;;;;;;;15.10;60.14;102205.19;1040626;28;1051;-67
2023/04/05 00:20:36;;;;;;;;;;;;;;;15.07;60.19;102206.25;1044837;28;697;-68
2023/04/05 00:21:26;;;;;;;;;;;;;;;15.08;59.89;102205.28;1043473;28;1102;-68
2023/04/05 00:22:24;;;;;;;;;;;;;;;15.11;59.92;102201.56;1045418;28;728;-67
2023/04/05 00:23:16;;;;;;;;;;;;;;;15.07;60.12;102206.25;1044245;28;1098;-67
2023/04/05 00:24:08;;;;;;;;;;;;;;;15.06;60.24;102206.34;1041656;28;1398;-68
2023/04/05 00:24:58;;;;;;;;;;;;;;;15.08;59.91;102196.38;1040106;28;640;-67
2023/04/05 00:25:49;;;;;;;;;;;;;;;15.01;59.88;102200.41;1045314;28;679;-67
2023/04/05 00:26:39;;;;;;;;;;;;;;;14.98;60.31;102200.59;1040659;28;634;-66
2023/04/05 00:27:30;;;;;;;;;;;;;;;14.96;60.54;102194.47;1040746;28;713;-66
2023/04/05 00:28:20;;;;;;;;;;;;;;;14.97;60.20;102194.38;1039915;28;1159;-66
2023/04/05 00:29:10;;;;;;;;;;;;;;;14.99;60.60;102194.28;1045397;28;696;-66
2023/04/05 00:30:01;;;;;;;;;;;;;;;15.00;60.35;102193.31;1045321;28;1142;-67
2023/04/05 00:30:51;;;;;;;;;;;;;;;15.03;60.27;102195.81;1044739;28;1953;-67
2023/04/05 00:31:42;;;;;;;;;;;;;;;14.96;60.21;102189.94;1044467;28;980;-67
2023/04/05 00:32:32;;;;;;;;;;;;;;;14.96;60.26;102197.13;1045289;28;626;-67
2023/04/05 00:33:23;;;;;;;;;;;;;;;14.89;60.38;102194.81;1043736;28;1173;-67
2023/04/05 00:34:13;;;;;;;;;;;;;;;14.85;60.50;102203.19;1044474;28;1473;-67
2023/04/05 00:35:03;;;;;;;;;;;;;;;14.87;60.53;102193.19;1045418;28;724;-67
2023/04/05 00:35:54;;;;;;;;;;;;;;;14.91;60.37;102187.53;1044609;28;1158;-67
2023/04/05 00:36:45;;;;;;;;;;;;;;;14.93;60.52;102199.06;1044253;28;716;-67
2023/04/05 00:37:35;;;;;;;;;;;;;;;14.95;60.26;102190.91;1041029;28;617;-67
2023/04/05 00:38:25;;;;;;;;;;;;;;;14.99;60.09;102191.59;1043470;28;776;-67
2023/04/05 00:39:16;;;;;;;;;;;;;;;14.93;60.74;102187.44;1041050;28;1275;-67
2023/04/05 00:40:06;;;;;;;;;;;;;;;14.93;60.60;102187.44;1041423;28;1394;-67
2023/04/05 00:40:57;;;;;;;;;;;;;;;14.90;60.49;102182.25;1039891;28;1084;-67
2023/04/05 00:41:47;;;;;;;;;;;;;;;14.93;60.50;102188.31;1041207;28;642;-67
2023/04/05 00:42:37;;;;;;;;;;;;;;;14.98;60.13;102185.34;1039954;28;1177;-67
2023/04/05 00:43:28;;;;;;;;;;;;;;;14.99;60.35;102183.53;1045195;28;654;-67
2023/04/05 00:44:18;;;;;;;;;;;;;;;14.91;60.35;102179.50;1044965;28;1319;-67
2023/04/05 00:45:09;;;;;;;;;;;;;;;14.87;60.69;102183.31;1041812;28;702;-67
2023/04/05 00:46:00;;;;;;;;;;;;;;;14.87;60.79;102186.00;1040080;28;1293;-67
2023/04/05 00:46:51;;;;;;;;;;;;;;;14.88;60.43;102181.50;1040642;28;1138;-67
2023/04/05 00:47:41;;;;;;;;;;;;;;;14.85;60.64;102187.06;1045279;28;642;-67
2023/04/05 00:48:31;;;;;;;;;;;;;;;14.82;60.55;102193.50;1044556;28;1127;-67
2023/04/05 00:49:22;;;;;;;;;;;;;;;14.83;60.56;102197.03;1045484;28;653;-67
2023/04/05 00:50:12;;;;;;;;;;;;;;;14.77;60.56;102187.53;1044854;28;1087;-67
2023/04/05 00:51:03;;;;;;;;;;;;;;;14.75;60.77;102184.06;1044740;28;1897;-67
2023/04/05 00:51:53;;;;;;;;;;;;;;;14.79;61.08;102182.94;1044596;28;1150;-67
2023/04/05 00:52:44;;;;;;;;;;;;;;;14.79;60.50;102184.75;1045269;28;658;-67
2023/04/05 00:53:34;;;;;;;;;;;;;;;14.84;60.40;102180.84;1040728;28;629;-67
2023/04/05 00:54:25;;;;;;;;;;;;;;;14.83;60.69;102179.13;1043061;28;1270;-67
2023/04/05 00:55:16;;;;;;;;;;;;;;;14.74;61.15;102187.72;1040679;28;1398;-67
2023/04/05 00:56:06;;;;;;;;;;;;;;;14.82;60.54;102190.81;1044513;28;1043;-66
2023/04/05 00:56:58;;;;;;;;;;;;;;;14.84;60.21;102188.91;1045171;28;1066;-67
2023/04/05 00:57:51;;;;;;;;;;;;;;;14.82;60.79;102180.06;1040663;28;670;-66
2023/04/05 00:58:41;;;;;;;;;;;;;;;14.85;60.61;102173.66;1039629;28;662;-67
2023/04/05 00:59:32;;;;;;;;;;;;;;;14.85;60.37;102174.53;1040453;28;646;-66
2023/04/05 01:00:23;;;;;;;;;;;;;;;14.91;60.40;102174.13;1040731;28;1115;-66
2023/04/05 01:01:13;;;;;;;;;;;;;;;14.91;60.19;102178.63;1041230;28;688;-66
2023/04/05 01:02:04;;;;;;;;;;;;;;;14.91;60.09;102173.25;1040445;28;1008;-66
2023/04/05 01:02:54;;;;;;;;;;;;;;;14.96;60.21;102178.34;1041656;28;1083;-67
2023/04/05 01:03:44;;;;;;;;;;;;;;;14.87;60.52;102169.88;1041466;28;948;-67
2023/04/05 01:04:35;;;;;;;;;;;;;;;14.86;60.49;102170.88;1041512;28;1536;-67
2023/04/05 01:05:26;;;;;;;;;;;;;;;14.87;60.28;102175.25;1041598;28;1476;-67
2023/04/05 01:06:16;;;;;;;;;;;;;;;14.91;60.38;102175.94;1039825;28;1285;-66
2023/04/05 01:07:07;;;;;;;;;;;;;;;14.87;60.68;102172.56;1044035;28;1326;-66
2023/04/05 01:07:58;;;;;;;;;;;;;;;14.84;60.36;102162.06;1043833;28;662;-67
2023/04/05 01:08:48;;;;;;;;;;;;;;;14.87;60.15;102167.22;1044977;28;689;-67
2023/04/05 01:09:39;;;;;;;;;;;;;;;14.84;60.31;102172.78;1041826;28;1260;-66
2023/04/05 01:10:29;;;;;;;;;;;;;;;14.81;60.59;102174.78;1043352;28;1363;-66
2023/04/05 01:11:20;;;;;;;;;;;;;;;14.84;60.27;102174.63;1042324;28;1919;-67
2023/04/05 01:12:11;;;;;;;;;;;;;;;14.83;60.70;102172.88;1040474;28;651;-67
2023/04/05 01:13:01;;;;;;;;;;;;;;;14.87;60.17;102175.25;1039888;28;1268;-67
2023/04/05 01:13:52;;;;;;;;;;;;;;;14.84;60.09;102172.78;1041681;28;645;-67
2023/04/05 01:14:43;;;;;;;;;;;;;;;14.83;60.26;102170.19;1039833;28;1087;-67
2023/04/05 01:15:33;;;;;;;;;;;;;;;14.81;60.78;102172.13;1040477;28;646;-67
2023/04/05 01:16:24;;;;;;;;;;;;;;;14.79;60.22;102164.16;1040051;28;721;-67
2023/04/05 01:17:15;;;;;;;;;;;;;;;14.79;60.79;102164.16;1041211;28;633;-66
2023/04/05 01:18:09;;;;;;;;;;;;;;;14.80;60.29;102165.03;1040542;28;693;-66
2023/04/05 01:18:59;;;;;;;;;;;;;;;14.79;60.30;102164.16;1039428;28;701;-67
2023/04/05 01:19:52;;;;;;;;;;;;;;;14.79;60.65;102160.59;1042381;28;712;-66
2023/04/05 01:20:43;;;;;;;;;;;;;;;14.80;60.35;102156.97;1040462;28;629;-67
2023/04/05 01:21:36;;;;;;;;;;;;;;;14.80;60.67;102165.88;1043374;28;1476;-66
2023/04/05 01:22:27;;;;;;;;;;;;;;;14.84;60.26;102166.56;1039978;28;630;-66
2023/04/05 01:23:17;;;;;;;;;;;;;;;14.83;60.41;102163.00;1044597;28;852;-66
2023/04/05 01:24:11;;;;;;;;;;;;;;;14.80;60.75;102159.66;1040627;28;727;-66
2023/04/05 01:25:05;;;;;;;;;;;;;;;14.81;60.15;102156.00;1040103;28;685;-67
2023/04/05 01:25:58;;;;;;;;;;;;;;;14.81;60.31;102159.56;1042920;28;1012;-67
2023/04/05 01:26:49;;;;;;;;;;;;;;;14.79;60.24;102161.47;1041217;28;696;-67
2023/04/05 01:27:39;;;;;;;;;;;;;;;14.74;60.65;102160.00;1043246;28;1294;-67
2023/04/05 01:28:30;;;;;;;;;;;;;;;14.73;60.84;102159.16;1044642;28;677;-67
2023/04/05 01:29:20;;;;;;;;;;;;;;;14.74;60.66;102155.50;1044367;28;1245;-67
2023/04/05 01:30:11;;;;;;;;;;;;;;;14.76;60.40;102153.59;1043278;28;622;-67
2023/04/05 01:31:01;;;;;;;;;;;;;;;14.75;60.51;102157.25;1044410;28;1890;-67
2023/04/05 01:31:52;;;;;;;;;;;;;;;14.71;60.80;102158.38;1045436;28;692;-67
2023/04/05 01:32:42;;;;;;;;;;;;;;;14.72;60.52;102156.56;1043426;28;666;-67
2023/04/05 01:33:33;;;;;;;;;;;;;;;14.70;60.80;102147.75;1040263;28;985;-67
2023/04/05 01:34:23;;;;;;;;;;;;;;;14.74;60.69;102151.97;1043704;28;731;-66
2023/04/05 01:35:13;;;;;;;;;;;;;;;14.70;60.75;102148.59;1043585;28;1210;-67
2023/04/05 01:36:04;;;;;;;;;;;;;;;14.72;60.60;102146.69;1044408;28;738;-67
2023/04/05 01:36:55;;;;;;;;;;;;;;;14.72;60.29;102140.47;1044584;28;1099;-67
2023/04/05 01:37:46;;;;;;;;;;;;;;;14.71;60.47;102150.31;1041150;28;645;-66
2023/04/05 01:38:36;;;;;;;;;;;;;;;14.71;60.84;102147.66;1039194;28;1095;-66
2023/04/05 01:39:27;;;;;;;;;;;;;;;14.71;60.40;102147.66;1041083;28;698;-66
2023/04/05 01:40:17;;;;;;;;;;;;;;;14.68;60.74;102150.53;1041020;28;1083;-67
2023/04/05 01:41:07;;;;;;;;;;;;;;;14.68;60.29;102150.53;1041071;28;677;-67
2023/04/05 01:41:58;;;;;;;;;;;;;;;14.71;60.80;102150.31;1045117;28;720;-66
2023/04/05 01:42:49;;;;;;;;;;;;;;;14.70;60.75;102140.56;1041697;28;618;-66
2023/04/05 01:43:40;;;;;;;;;;;;;;;14.71;60.68;102142.28;1043621;28;1195;-66
2023/04/05 01:44:30;;;;;;;;;;;;;;;14.69;60.20;102146.03;1043620;28;1536;-67
2023/04/05 01:45:20;;;;;;;;;;;;;;;14.69;60.76;102144.19;1041816;28;715;-67
2023/04/05 01:46:11;;;;;;;;;;;;;;;14.69;60.48;102138.00;1044514;28;1222;-67
2023/04/05 01:47:01;;;;;;;;;;;;;;;14.68;60.62;102144.31;1045307;28;689;-66
2023/04/05 01:47:52;;;;;;;;;;;;;;;14.52;61.39;102144.34;1044718;28;747;-66
2023/04/05 01:48:42;;;;;;;;;;;;;;;14.51;60.38;102140.81;1045075;28;1023;-67
2023/04/05 01:49:32;;;;;;;;;;;;;;;14.52;61.04;102147.03;1045973;28;642;-66
2023/04/05 01:50:23;;;;;;;;;;;;;;;14.50;61.28;102138.25;1044765;28;678;-67
2023/04/05 01:51:13;;;;;;;;;;;;;;;14.54;61.10;102145.13;1044787;28;1940;-67
2023/04/05 01:52:04;;;;;;;;;;;;;;;14.51;61.19;102142.66;1045579;28;724;-67
2023/04/05 01:52:54;;;;;;;;;;;;;;;14.47;61.17;102141.13;1044343;28;655;-67
2023/04/05 01:53:45;;;;;;;;;;;;;;;14.50;61.15;102135.56;1045773;28;1338;-67
2023/04/05 01:54:35;;;;;;;;;;;;;;;14.52;61.06;102144.34;1043854;28;1193;-67
2023/04/05 01:55:26;;;;;;;;;;;;;;;14.50;60.61;102141.81;1041936;28;667;-66
2023/04/05 01:56:16;;;;;;;;;;;;;;;14.50;60.99;102135.56;1040686;28;662;-66
2023/04/05 01:57:07;;;;;;;;;;;;;;;14.55;60.54;102130.75;1042765;28;692;-66
2023/04/05 01:57:57;;;;;;;;;;;;;;;14.58;60.78;102126.09;1040902;28;744;-66
2023/04/05 01:58:47;;;;;;;;;;;;;;;14.60;60.85;102134.03;1053115;28;1141;-66
2023/04/05 01:59:38;;;;;;;;;;;;;;;14.55;60.94;102137.00;1045630;28;707;-66
2023/04/05 02:00:28;;;;;;;;;;;;;;;14.60;60.53;102131.34;1041787;28;672;-66
2023/04/05 02:01:19;;;;;;;;;;;;;;;14.59;60.47;102132.31;1042276;28;1302;-66
2023/04/05 02:02:09;;;;;;;;;;;;;;;14.54;60.25;102134.41;1040470;28;1230;-66
2023/04/05 02:03:00;;;;;;;;;;;;;;;14.53;61.00;102130.00;1042456;28;716;-66
2023/04/05 02:03:50;;;;;;;;;;;;;;;14.56;61.00;102129.81;1041781;28;622;-66
2023/04/05 02:04:41;;;;;;;;;;;;;;;14.52;60.68;102128.25;1042960;28;979;-66
2023/04/05 02:05:31;;;;;;;;;;;;;;;14.54;61.13;102131.72;1045259;28;626;-66
2023/04/05 02:06:22;;;;;;;;;;;;;;;14.50;60.98;102135.56;1044945;28;1070;-66
2023/04/05 02:07:12;;;;;;;;;;;;;;;14.54;60.58;102124.53;1045882;28;673;-66
2023/04/05 02:08:03;;;;;;;;;;;;;;;14.47;61.36;102136.63;1045748;28;948;-66
2023/04/05 02:08:53;;;;;;;;;;;;;;;14.42;60.97;102132.47;1045921;28;657;-66
2023/04/05 02:09:44;;;;;;;;;;;;;;;14.41;61.00;102136.97;1045180;28;1027;-66
2023/04/05 02:10:34;;;;;;;;;;;;;;;14.43;61.03;102131.53;1045260;28;652;-67
2023/04/05 02:11:24;;;;;;;;;;;;;;;14.49;61.10;102136.53;1042081;28;1913;-66
2023/04/05 02:12:15;;;;;;;;;;;;;;;14.48;60.71;102127.63;1041304;28;731;-66
2023/04/05 02:13:05;;;;;;;;;;;;;;;14.52;60.50;102129.13;1042549;28;1128;-66
2023/04/05 02:13:56;;;;;;;;;;;;;;;14.53;60.27;102132.66;1045968;28;653;-67
2023/04/05 02:14:49;;;;;;;;;;;;;;;14.46;60.88;102121.47;1045690;28;1086;-66
2023/04/05 02:15:39;;;;;;;;;;;;;;;14.46;60.75;102126.84;1045932;28;634;-67
2023/04/05 02:16:32;;;;;;;;;;;;;;;14.44;60.74;102120.69;1041805;28;637;-67
2023/04/05 02:17:22;;;;;;;;;;;;;;;14.36;60.91;102128.31;1041117;28;925;-67
2023/04/05 02:18:12;;;;;;;;;;;;;;;14.40;61.25;102120.94;1045855;28;677;-67
2023/04/05 02:19:04;;;;;;;;;;;;;;;14.40;61.37;102118.25;1043850;28;1256;-67
2023/04/05 02:20:01;;;;;;;;;;;;;;;14.38;60.94;102123.72;1044935;28;650;-67
2023/04/05 02:20:51;;;;;;;;;;;;;;;14.41;61.24;102111.97;1043943;28;1163;-67
2023/04/05 02:21:41;;;;;;;;;;;;;;;14.42;61.26;102111.03;1044301;28;1392;-67
2023/04/05 02:22:32;;;;;;;;;;;;;;;14.43;61.18;102113.63;1045237;28;1280;-67
2023/04/05 02:23:22;;;;;;;;;;;;;;;14.38;61.51;102118.34;1040773;28;1174;-66
2023/04/05 02:24:13;;;;;;;;;;;;;;;14.37;60.87;102113.06;1045897;28;1015;-67
2023/04/05 02:25:03;;;;;;;;;;;;;;;14.36;61.36;102112.22;1044796;28;628;-67
2023/04/05 02:25:54;;;;;;;;;;;;;;;14.39;61.03;102121.91;1042152;28;1082;-67
2023/04/05 02:26:44;;;;;;;;;;;;;;;14.42;60.61;102111.88;1041666;28;697;-66
2023/04/05 02:27:35;;;;;;;;;;;;;;;14.41;61.44;102110.16;1045327;28;654;-67
2023/04/05 02:28:25;;;;;;;;;;;;;;;14.42;60.77;102108.34;1041121;28;611;-67
2023/04/05 02:29:16;;;;;;;;;;;;;;;14.43;60.35;102108.25;1045042;28;1042;-66
2023/04/05 02:30:06;;;;;;;;;;;;;;;14.40;61.07;102107.53;1045788;28;646;-66
2023/04/05 02:30:57;;;;;;;;;;;;;;;14.41;60.84;102114.66;1045207;28;646;-66
2023/04/05 02:31:47;;;;;;;;;;;;;;;14.41;61.23;102114.66;1045042;28;1291;-66
2023/04/05 02:32:37;;;;;;;;;;;;;;;14.41;61.13;102117.34;1045595;28;1182;-66
2023/04/05 02:33:28;;;;;;;;;;;;;;;14.36;60.89;102119.41;1045742;28;682;-66
2023/04/05 02:34:19;;;;;;;;;;;;;;;14.38;61.27;102120.16;1043925;28;1199;-66
2023/04/05 02:35:09;;;;;;;;;;;;;;;14.39;60.65;102117.41;1045513;28;755;-66
2023/04/05 02:36:00;;;;;;;;;;;;;;;14.42;61.14;102105.66;1041998;28;705;-66
2023/04/05 02:36:50;;;;;;;;;;;;;;;14.43;61.10;102108.25;1043267;28;948;-66
2023/04/05 02:37:41;;;;;;;;;;;;;;;14.43;61.10;102110.06;1045963;28;638;-66
2023/04/05 02:38:32;;;;;;;;;;;;;;;14.43;60.61;102102.88;1044745;28;1094;-67
2023/04/05 02:39:22;;;;;;;;;;;;;;;14.44;60.97;102101.94;1044450;28;658;-67
2023/04/05 02:40:13;;;;;;;;;;;;;;;14.43;61.17;102102.03;1041709;28;689;-67
2023/04/05 02:41:04;;;;;;;;;;;;;;;14.40;61.04;102102.16;1040626;28;724;-67
2023/04/05 02:41:55;;;;;;;;;;;;;;;14.41;60.58;102098.56;1042123;28;1011;-66
2023/04/05 02:42:45;;;;;;;;;;;;;;;14.37;60.73;102096.97;1043530;28;1393;-66
2023/04/05 02:43:36;;;;;;;;;;;;;;;14.35;61.17;102097.06;1041441;28;1106;-66
2023/04/05 02:44:26;;;;;;;;;;;;;;;14.36;61.14;102098.81;1045665;28;638;-66
2023/04/05 02:45:17;;;;;;;;;;;;;;;14.39;60.65;102101.31;1045651;28;1126;-66
2023/04/05 02:46:07;;;;;;;;;;;;;;;14.36;61.19;102096.13;1045774;28;714;-67
2023/04/05 02:46:58;;;;;;;;;;;;;;;14.36;60.69;102097.94;1045056;28;1150;-66
2023/04/05 02:47:48;;;;;;;;;;;;;;;14.34;60.34;102097.16;1045743;28;713;-66
2023/04/05 02:48:39;;;;;;;;;;;;;;;14.32;61.16;102099.97;1040928;28;654;-67
2023/04/05 02:49:29;;;;;;;;;;;;;;;14.31;61.28;102105.44;1041235;28;1024;-66
2023/04/05 02:50:20;;;;;;;;;;;;;;;14.34;61.27;102097.16;1049620;28;693;-66
2023/04/05 02:51:10;;;;;;;;;;;;;;;14.36;60.58;102092.56;1048132;28;1886;-66
2023/04/05 02:52:01;;;;;;;;;;;;;;;14.40;60.74;102097.69;1041194;28;680;-66
2023/04/05 02:52:51;;;;;;;;;;;;;;;14.39;60.19;102103.13;1045314;28;702;-66
2023/04/05 02:53:43;;;;;;;;;;;;;;;14.34;60.48;102100.72;1041107;28;629;-66
2023/04/05 02:54:34;;;;;;;;;;;;;;;14.36;60.91;102096.13;1040834;28;704;-66
2023/04/05 02:55:24;;;;;;;;;;;;;;;14.37;60.60;102097.84;1040303;28;740;-67
2023/04/05 02:56:15;;;;;;;;;;;;;;;14.35;60.47;102089.03;1041459;28;1070;-66
2023/04/05 02:57:09;;;;;;;;;;;;;;;14.35;60.89;102096.22;1041059;28;665;-67
2023/04/05 02:58:00;;;;;;;;;;;;;;;14.33;60.84;102093.63;1040430;28;642;-66
2023/04/05 02:58:50;;;;;;;;;;;;;;;14.33;60.50;102092.78;1040975;28;622;-65
2023/04/05 02:59:41;;;;;;;;;;;;;;;14.35;60.64;102093.53;1040564;28;821;-65
2023/04/05 03:00:32;;;;;;;;;;;;;;;14.35;61.04;102094.41;1041267;28;1167;-65
2023/04/05 03:01:23;;;;;;;;;;;;;;;14.38;60.71;102087.97;1045150;28;736;-65
2023/04/05 03:02:13;;;;;;;;;;;;;;;14.32;60.83;102083.88;1045072;28;823;-67
2023/04/05 03:03:04;;;;;;;;;;;;;;;14.31;60.68;102086.66;1042166;28;692;-65
2023/04/05 03:03:55;;;;;;;;;;;;;;;14.32;60.57;102088.38;1042598;28;781;-65
2023/04/05 03:04:45;;;;;;;;;;;;;;;14.30;61.08;102085.78;1041606;28;705;-65
2023/04/05 03:05:35;;;;;;;;;;;;;;;14.30;60.58;102079.56;1042967;28;682;-66
2023/04/05 03:06:26;;;;;;;;;;;;;;;14.32;60.66;102078.53;1040924;28;1122;-65
2023/04/05 03:07:17;;;;;;;;;;;;;;;14.33;61.01;102082.88;1043353;28;1055;-66
2023/04/05 03:08:07;;;;;;;;;;;;;;;14.27;60.55;102079.75;1045738;28;705;-65
2023/04/05 03:08:58;;;;;;;;;;;;;;;14.30;60.75;102080.44;1045139;28;1035;-66
2023/04/05 03:09:50;;;;;;;;;;;;;;;14.28;60.67;102087.69;1045160;28;622;-66
2023/04/05 03:10:43;;;;;;;;;;;;;;;14.28;60.85;102078.78;1040953;28;721;-66
2023/04/05 03:11:34;;;;;;;;;;;;;;;14.30;61.08;102068.84;1043301;28;1150;-66
2023/04/05 03:12:24;;;;;;;;;;;;;;;14.30;60.95;102079.56;1045691;28;688;-67
2023/04/05 03:13:15;;;;;;;;;;;;;;;14.28;60.69;102076.09;1040079;28;670;-67
2023/04/05 03:14:05;;;;;;;;;;;;;;;14.27;60.74;102079.75;1044281;28;713;-67
2023/04/05 03:14:56;;;;;;;;;;;;;;;14.27;60.76;102075.25;1044786;28;1220;-67
2023/04/05 03:15:46;;;;;;;;;;;;;;;14.27;61.05;102077.06;1044923;28;610;-67
2023/04/05 03:16:38;;;;;;;;;;;;;;;14.25;61.21;102071.78;1041995;28;625;-67
2023/04/05 03:17:28;;;;;;;;;;;;;;;14.26;61.22;102073.53;1044405;28;634;-67
2023/04/05 03:18:19;;;;;;;;;;;;;;;14.23;61.10;102074.56;1041788;28;723;-67
2023/04/05 03:19:09;;;;;;;;;;;;;;;14.21;61.29;102070.25;1045132;28;958;-68
2023/04/05 03:20:01;;;;;;;;;;;;;;;14.20;60.80;102074.75;1043569;28;763;-67
2023/04/05 03:21:00;;;;;;;;;;;;;;;14.20;60.82;102071.19;1043512;28;670;-67
2023/04/05 03:21:51;;;;;;;;;;;;;;;14.21;61.18;102065.75;1044049;28;1324;-67
2023/04/05 03:22:41;;;;;;;;;;;;;;;14.17;61.35;102072.25;1043054;28;1192;-67
2023/04/05 03:23:32;;;;;;;;;;;;;;;14.21;60.27;102067.56;1041547;28;681;-67
2023/04/05 03:24:22;;;;;;;;;;;;;;;14.21;61.08;102072.91;1039101;28;630;-67
2023/04/05 03:25:15;;;;;;;;;;;;;;;14.19;61.34;102075.69;1041023;28;1364;-67
2023/04/05 03:26:05;;;;;;;;;;;;;;;14.13;61.02;102073.41;1039943;28;1221;-67
2023/04/05 03:26:58;;;;;;;;;;;;;;;14.16;60.70;102075.88;1044787;28;689;-67
2023/04/05 03:27:48;;;;;;;;;;;;;;;14.18;60.90;102082.00;1044410;28;1096;-67
2023/04/05 03:28:43;;;;;;;;;;;;;;;14.13;60.71;102070.72;1045106;28;665;-67
2023/04/05 03:29:34;;;;;;;;;;;;;;;14.15;61.21;102074.16;1042658;28;646;-67
2023/04/05 03:30:25;;;;;;;;;;;;;;;14.13;60.63;102064.50;1044870;28;1131;-67
2023/04/05 03:31:16;;;;;;;;;;;;;;;14.11;61.23;102072.63;1045013;28;1891;-67
2023/04/05 03:32:10;;;;;;;;;;;;;;;14.17;61.22;102063.34;1043994;28;1015;-67
2023/04/05 03:33:01;;;;;;;;;;;;;;;14.11;61.19;102063.72;1041058;28;668;-66
2023/04/05 03:33:52;;;;;;;;;;;;;;;14.11;60.77;102055.69;1040733;28;1110;-66
2023/04/05 03:34:42;;;;;;;;;;;;;;;14.08;60.78;102069.25;1041358;28;1011;-66
2023/04/05 03:35:33;;;;;;;;;;;;;;;14.04;61.53;102065.03;1040269;28;626;-66
2023/04/05 03:36:23;;;;;;;;;;;;;;;14.07;61.25;102065.72;1041319;28;1133;-66
2023/04/05 03:37:14;;;;;;;;;;;;;;;14.06;60.71;102065.81;1040660;28;1201;-66
2023/04/05 03:38:04;;;;;;;;;;;;;;;14.05;61.51;102064.94;1042077;28;721;-67
2023/04/05 03:38:55;;;;;;;;;;;;;;;14.08;60.80;102062.09;1040512;28;706;-67
2023/04/05 03:39:45;;;;;;;;;;;;;;;14.04;61.11;102067.72;1041339;28;660;-67
2023/04/05 03:40:36;;;;;;;;;;;;;;;14.01;61.52;102058.03;1041537;28;660;-66
2023/04/05 03:41:26;;;;;;;;;;;;;;;14.01;61.40;102060.72;1044771;28;1114;-67
2023/04/05 03:42:17;;;;;;;;;;;;;;;14.03;60.92;102066.84;1042815;28;843;-67
2023/04/05 03:43:07;;;;;;;;;;;;;;;14.04;60.95;102063.22;1041203;28;1035;-67
2023/04/05 03:43:58;;;;;;;;;;;;;;;14.07;60.73;102057.69;1042906;28;749;-67
2023/04/05 03:44:48;;;;;;;;;;;;;;;14.06;60.65;102063.13;1044879;28;1166;-67
2023/04/05 03:45:39;;;;;;;;;;;;;;;14.05;61.10;102064.94;1045496;28;764;-66
2023/04/05 03:46:29;;;;;;;;;;;;;;;14.03;60.96;102061.50;1041410;28;682;-66
2023/04/05 03:47:20;;;;;;;;;;;;;;;14.00;61.70;102059.00;1042943;28;968;-66
2023/04/05 03:48:10;;;;;;;;;;;;;;;14.01;60.88;102063.41;1045477;28;649;-66
2023/04/05 03:49:01;;;;;;;;;;;;;;;13.98;61.06;102063.56;1041531;28;1075;-67
2023/04/05 03:49:51;;;;;;;;;;;;;;;13.93;61.28;102059.47;1040906;28;657;-67
2023/04/05 03:50:41;;;;;;;;;;;;;;;13.94;61.06;102061.19;1041378;28;701;-67
2023/04/05 03:51:32;;;;;;;;;;;;;;;13.93;61.67;102065.69;1040273;28;1107;-66
2023/04/05 03:52:22;;;;;;;;;;;;;;;13.98;61.28;102068.06;1045451;28;672;-67
2023/04/05 03:53:16;;;;;;;;;;;;;;;14.00;61.36;102067.03;1045352;28;1126;-66
2023/04/05 03:54:06;;;;;;;;;;;;;;;14.04;61.24;102071.25;1041394;28;649;-66
2023/04/05 03:54:57;;;;;;;;;;;;;;;14.06;60.69;102069.34;1040868;28;759;-66
2023/04/05 03:55:49;;;;;;;;;;;;;;;14.01;61.12;102063.41;1040736;28;616;-67
2023/04/05 03:56:39;;;;;;;;;;;;;;;14.03;60.84;102064.19;1043063;28;1107;-66
2023/04/05 03:57:30;;;;;;;;;;;;;;;14.04;60.72;102068.59;1045227;28;637;-68
2023/04/05 03:58:20;;;;;;;;;;;;;;;13.99;61.66;102067.13;1042433;28;782;-67
2023/04/05 03:59:11;;;;;;;;;;;;;;;13.93;61.19;102073.72;1043935;28;712;-67
2023/04/05 04:00:12;;;;;;;;;;;;;;;13.96;61.85;102070.00;1044780;28;685;-67
2023/04/05 04:01:03;;;;;;;;;;;;;;;13.96;60.95;102075.38;1044316;28;1086;-67
2023/04/05 04:01:53;;;;;;;;;;;;;;;13.95;60.95;102076.31;1043502;28;1479;-67
2023/04/05 04:02:44;;;;;;;;;;;;;;;13.94;61.26;102078.13;1041827;28;1350;-66
2023/04/05 04:03:36;;;;;;;;;;;;;;;13.95;61.04;102069.16;1044784;28;692;-66
2023/04/05 04:04:26;;;;;;;;;;;;;;;13.92;61.66;102074.69;1039543;28;646;-66
2023/04/05 04:05:17;;;;;;;;;;;;;;;13.90;61.59;102076.59;1041923;28;792;-67
2023/04/05 04:06:07;;;;;;;;;;;;;;;13.92;61.70;102079.19;1040722;28;696;-67
2023/04/05 04:06:58;;;;;;;;;;;;;;;13.92;60.89;102074.69;1041310;28;708;-67
2023/04/05 04:07:48;;;;;;;;;;;;;;;13.91;60.90;102072.94;1040985;28;613;-67
2023/04/05 04:08:39;;;;;;;;;;;;;;;13.90;61.43;102068.53;1045157;28;1063;-67
2023/04/05 04:09:29;;;;;;;;;;;;;;;13.88;61.01;102071.31;1044767;28;741;-67
2023/04/05 04:10:20;;;;;;;;;;;;;;;13.89;61.16;102074.84;1043910;28;650;-67
2023/04/05 04:11:10;;;;;;;;;;;;;;;13.88;61.38;102067.78;1042379;28;1910;-67
2023/04/05 04:12:01;;;;;;;;;;;;;;;13.94;60.99;102075.47;1044704;28;1402;-66
2023/04/05 04:12:51;;;;;;;;;;;;;;;14.03;60.42;102072.22;1042245;28;1313;-66
2023/04/05 04:13:42;;;;;;;;;;;;;;;14.09;59.99;102071.84;1045346;28;680;-67
2023/04/05 04:14:32;;;;;;;;;;;;;;;14.17;59.37;102066.88;1044854;28;708;-67
2023/04/05 04:15:23;;;;;;;;;;;;;;;14.19;59.59;102073.00;1044711;28;661;-67
2023/04/05 04:16:13;;;;;;;;;;;;;;;14.24;59.39;102076.28;1044618;28;1378;-66
2023/04/05 04:17:04;;;;;;;;;;;;;;;14.22;59.21;102064.78;1042717;28;1103;-67
2023/04/05 04:17:54;;;;;;;;;;;;;;;14.23;59.68;102073.69;1043006;28;1357;-67
2023/04/05 04:18:45;;;;;;;;;;;;;;;14.22;59.25;102067.47;1043594;28;1199;-67
2023/04/05 04:19:35;;;;;;;;;;;;;;;14.24;58.65;102068.25;1042652;28;1045;-67
2023/04/05 04:20:26;;;;;;;;;;;;;;;14.24;58.67;102070.06;1042841;28;1127;-67
2023/04/05 04:21:17;;;;;;;;;;;;;;;14.25;58.48;102066.44;1044036;28;1041;-67
2023/04/05 04:22:09;;;;;;;;;;;;;;;14.27;58.49;102077.06;1041256;28;1236;-68
2023/04/05 04:22:59;;;;;;;;;;;;;;;14.24;58.66;102062.88;1040122;28;964;-66
2023/04/05 04:23:50;;;;;;;;;;;;;;;14.24;58.56;102065.56;1042123;28;1090;-66
2023/04/05 04:24:44;;;;;;;;;;;;;;;14.23;58.13;102069.19;1042517;28;1127;-66
2023/04/05 04:25:35;;;;;;;;;;;;;;;14.23;58.69;102069.19;1041222;28;1081;-66
2023/04/05 04:26:27;;;;;;;;;;;;;;;14.24;58.57;102065.56;1040890;28;1210;-66